DCMYK EHRD-EDDP
Flight info
| Callsign | DCMYK |
|---|---|
| Flight time | 0h 58m |
| Altitude | 45000 |
| Route | ARNEM L620 HMM DCT NORTA/N0450F230 DCT ADMOS T959 KOJEC KOJEC1V |
| Aircraft | C700/M-SBDGHM1RWXY/LB2 |
Departure
| Time | 2026-05-04 18:15 |
|---|---|
| Airport | Rotterdam The Hague Airport (EHRD) |
Arrival
| Time | 2026-05-04 19:13 |
|---|---|
| Airport | Leipzig/Halle Airport (EDDP) |
| Time | Latitude | Longitude | Altitude | Speed | Heading |
|---|---|---|---|---|---|
| 2026-05-04 18:04 | 51.95089 | 4.43881 | -5 ft | 0 kts | 326° |
| 2026-05-04 18:12 | 51.95090 | 4.43880 | -5 ft | 0 kts | 320° |
| 2026-05-04 18:12 | 51.95089 | 4.43873 | -5 ft | 1 kts | 263° |
| 2026-05-04 18:12 | 51.95069 | 4.43856 | -5 ft | 6 kts | 174° |
| 2026-05-04 18:12 | 51.95030 | 4.43809 | -5 ft | 9 kts | 238° |
| 2026-05-04 18:13 | 51.95032 | 4.43729 | -5 ft | 7 kts | 334° |
| 2026-05-04 18:13 | 51.95125 | 4.43635 | -5 ft | 23 kts | 327° |
| 2026-05-04 18:13 | 51.95247 | 4.43409 | -5 ft | 15 kts | 236° |
| 2026-05-04 18:14 | 51.95182 | 4.43247 | -5 ft | 19 kts | 237° |
| 2026-05-04 18:14 | 51.95171 | 4.43101 | -5 ft | 14 kts | 330° |
| 2026-05-04 18:14 | 51.95189 | 4.43095 | -5 ft | 0 kts | 10° |
| 2026-05-04 18:15 | 51.95296 | 4.43102 | -4 ft | 22 kts | 1° |
| 2026-05-04 18:15 | 51.95647 | 4.43945 | 17 ft | 129 kts | 53° |
| 2026-05-04 18:15 | 51.96207 | 4.45292 | 922 ft | 152 kts | 53° |
| 2026-05-04 18:16 | 51.96677 | 4.46892 | 2305 ft | 159 kts | 64° |
| 2026-05-04 18:16 | 51.97076 | 4.48469 | 3105 ft | 156 kts | 66° |
| 2026-05-04 18:16 | 51.97698 | 4.50116 | 4164 ft | 183 kts | 53° |
| 2026-05-04 18:17 | 51.99163 | 4.54156 | 6882 ft | 234 kts | 62° |
| 2026-05-04 18:17 | 52.00087 | 4.56510 | 8175 ft | 261 kts | 47° |
| 2026-05-04 18:17 | 52.03412 | 4.59736 | 11168 ft | 301 kts | 23° |
| 2026-05-04 18:18 | 52.05275 | 4.61529 | 12702 ft | 317 kts | 38° |
| 2026-05-04 18:18 | 52.06894 | 4.64043 | 14491 ft | 327 kts | 44° |
| 2026-05-04 18:18 | 52.08479 | 4.66717 | 16008 ft | 338 kts | 45° |
| 2026-05-04 18:18 | 52.10126 | 4.69514 | 17583 ft | 347 kts | 45° |
| 2026-05-04 18:19 | 52.13585 | 4.75351 | 20137 ft | 365 kts | 45° |
| 2026-05-04 18:19 | 52.15167 | 4.78665 | 21169 ft | 377 kts | 58° |
| 2026-05-04 18:19 | 52.16299 | 4.82544 | 22296 ft | 384 kts | 70° |
| 2026-05-04 18:20 | 52.17103 | 4.86740 | 23344 ft | 393 kts | 73° |
| 2026-05-04 18:20 | 52.17906 | 4.91042 | 24282 ft | 399 kts | 73° |
| 2026-05-04 18:20 | 52.18725 | 4.95378 | 25259 ft | 404 kts | 74° |
| 2026-05-04 18:20 | 52.19564 | 4.99795 | 26106 ft | 411 kts | 74° |
| 2026-05-04 18:21 | 52.20340 | 5.04292 | 26990 ft | 414 kts | 82° |
| 2026-05-04 18:21 | 52.20463 | 5.07389 | 27583 ft | 413 kts | 94° |
| 2026-05-04 18:21 | 52.20171 | 5.11965 | 28522 ft | 412 kts | 103° |
| 2026-05-04 18:21 | 52.19662 | 5.16584 | 29434 ft | 415 kts | 105° |
| 2026-05-04 18:22 | 52.19100 | 5.22816 | 30503 ft | 424 kts | 99° |
| 2026-05-04 18:22 | 52.18933 | 5.27677 | 31109 ft | 433 kts | 96° |
| 2026-05-04 18:22 | 52.18855 | 5.30950 | 31503 ft | 437 kts | 97° |
| 2026-05-04 18:22 | 52.18626 | 5.35910 | 32081 ft | 441 kts | 100° |
| 2026-05-04 18:23 | 52.18291 | 5.40920 | 32645 ft | 447 kts | 101° |
| 2026-05-04 18:23 | 52.17995 | 5.46002 | 33181 ft | 454 kts | 99° |
| 2026-05-04 18:23 | 52.17762 | 5.51141 | 33958 ft | 453 kts | 99° |
| 2026-05-04 18:23 | 52.17512 | 5.56258 | 34587 ft | 453 kts | 100° |
| 2026-05-04 18:24 | 52.17217 | 5.61358 | 35230 ft | 452 kts | 100° |
| 2026-05-04 18:24 | 52.16922 | 5.66474 | 35869 ft | 452 kts | 99° |
| 2026-05-04 18:24 | 52.16650 | 5.71590 | 36481 ft | 452 kts | 98° |
| 2026-05-04 18:24 | 52.16380 | 5.76683 | 37073 ft | 452 kts | 98° |
| 2026-05-04 18:25 | 52.16096 | 5.81723 | 37644 ft | 452 kts | 98° |
| 2026-05-04 18:25 | 52.15802 | 5.86832 | 38206 ft | 452 kts | 98° |
| 2026-05-04 18:25 | 52.15512 | 5.91962 | 38717 ft | 452 kts | 98° |
| 2026-05-04 18:25 | 52.15227 | 5.97026 | 39064 ft | 453 kts | 98° |
| 2026-05-04 18:26 | 52.14933 | 6.02142 | 39447 ft | 453 kts | 98° |
| 2026-05-04 18:26 | 52.14636 | 6.07247 | 39818 ft | 454 kts | 98° |
| 2026-05-04 18:26 | 52.14337 | 6.12358 | 40183 ft | 454 kts | 97° |
| 2026-05-04 18:26 | 52.14037 | 6.17475 | 40542 ft | 454 kts | 97° |
| 2026-05-04 18:27 | 52.13733 | 6.22599 | 40894 ft | 454 kts | 97° |
| 2026-05-04 18:27 | 52.13428 | 6.27711 | 41244 ft | 455 kts | 97° |
| 2026-05-04 18:27 | 52.13120 | 6.32845 | 41585 ft | 455 kts | 97° |
| 2026-05-04 18:27 | 52.12810 | 6.37973 | 41916 ft | 455 kts | 97° |
| 2026-05-04 18:28 | 52.12497 | 6.43100 | 42215 ft | 456 kts | 97° |
| 2026-05-04 18:28 | 52.12182 | 6.48222 | 42524 ft | 456 kts | 97° |
| 2026-05-04 18:28 | 52.11868 | 6.53290 | 42827 ft | 456 kts | 97° |
| 2026-05-04 18:28 | 52.11547 | 6.58430 | 43134 ft | 456 kts | 97° |
| 2026-05-04 18:29 | 52.11225 | 6.63571 | 43436 ft | 457 kts | 97° |
| 2026-05-04 18:29 | 52.10900 | 6.68718 | 43729 ft | 457 kts | 97° |
| 2026-05-04 18:29 | 52.10573 | 6.73859 | 44014 ft | 457 kts | 97° |
| 2026-05-04 18:29 | 52.10243 | 6.78993 | 44296 ft | 457 kts | 97° |
| 2026-05-04 18:30 | 52.09577 | 6.89288 | 44801 ft | 457 kts | 97° |
| 2026-05-04 18:30 | 52.09239 | 6.94447 | 44970 ft | 459 kts | 97° |
| 2026-05-04 18:31 | 52.08542 | 7.04985 | 44970 ft | 470 kts | 97° |
| 2026-05-04 18:31 | 52.07834 | 7.15541 | 44977 ft | 480 kts | 97° |
| 2026-05-04 18:32 | 52.07093 | 7.26452 | 44972 ft | 490 kts | 97° |
| 2026-05-04 18:32 | 52.06328 | 7.37552 | 44968 ft | 499 kts | 97° |
| 2026-05-04 18:33 | 52.05539 | 7.48851 | 44974 ft | 506 kts | 97° |
| 2026-05-04 18:33 | 52.04731 | 7.60247 | 44973 ft | 506 kts | 98° |
| 2026-05-04 18:34 | 52.03920 | 7.71534 | 44303 ft | 505 kts | 98° |
| 2026-05-04 18:34 | 52.03512 | 7.77163 | 43732 ft | 497 kts | 98° |
| 2026-05-04 18:34 | 52.03110 | 7.82679 | 43174 ft | 488 kts | 98° |
| 2026-05-04 18:34 | 52.02711 | 7.88097 | 42618 ft | 478 kts | 98° |
| 2026-05-04 18:35 | 52.02318 | 7.93405 | 42080 ft | 469 kts | 98° |
| 2026-05-04 18:35 | 52.01929 | 7.98622 | 41561 ft | 463 kts | 99° |
| 2026-05-04 18:35 | 52.01542 | 8.03786 | 41000 ft | 461 kts | 99° |
| 2026-05-04 18:35 | 52.01150 | 8.08979 | 40398 ft | 465 kts | 99° |
| 2026-05-04 18:36 | 52.00752 | 8.14203 | 39819 ft | 470 kts | 99° |
| 2026-05-04 18:36 | 52.00349 | 8.19502 | 39248 ft | 475 kts | 99° |
| 2026-05-04 18:36 | 51.99939 | 8.24843 | 38696 ft | 479 kts | 99° |
| 2026-05-04 18:36 | 51.99525 | 8.30219 | 38007 ft | 480 kts | 100° |
| 2026-05-04 18:37 | 51.99107 | 8.35598 | 37306 ft | 479 kts | 100° |
| 2026-05-04 18:37 | 51.98686 | 8.40977 | 36634 ft | 480 kts | 100° |
| 2026-05-04 18:37 | 51.98268 | 8.46295 | 35992 ft | 481 kts | 101° |
| 2026-05-04 18:37 | 51.97863 | 8.51414 | 35396 ft | 483 kts | 101° |
| 2026-05-04 18:38 | 51.97431 | 8.56843 | 34781 ft | 485 kts | 101° |
| 2026-05-04 18:38 | 51.96996 | 8.62273 | 34183 ft | 488 kts | 101° |
| 2026-05-04 18:38 | 51.96556 | 8.67744 | 33529 ft | 489 kts | 102° |
| 2026-05-04 18:38 | 51.96111 | 8.73239 | 32844 ft | 491 kts | 101° |
| 2026-05-04 18:39 | 51.95676 | 8.78573 | 32209 ft | 492 kts | 101° |
| 2026-05-04 18:39 | 51.95226 | 8.84068 | 31541 ft | 492 kts | 101° |
| 2026-05-04 18:39 | 51.94778 | 8.89508 | 30917 ft | 493 kts | 101° |
| 2026-05-04 18:39 | 51.94323 | 8.95029 | 30300 ft | 495 kts | 101° |
| 2026-05-04 18:40 | 51.93859 | 9.00572 | 29638 ft | 497 kts | 101° |
| 2026-05-04 18:40 | 51.93393 | 9.06098 | 28939 ft | 491 kts | 101° |
| 2026-05-04 18:40 | 51.92937 | 9.11537 | 28255 ft | 482 kts | 101° |
| 2026-05-04 18:40 | 51.92486 | 9.16875 | 27583 ft | 474 kts | 101° |
| 2026-05-04 18:41 | 51.92037 | 9.22122 | 26921 ft | 467 kts | 101° |
| 2026-05-04 18:41 | 51.91592 | 9.27297 | 26283 ft | 461 kts | 101° |
| 2026-05-04 18:41 | 51.91151 | 9.32412 | 25660 ft | 456 kts | 101° |
| 2026-05-04 18:41 | 51.90711 | 9.37492 | 25058 ft | 454 kts | 101° |
| 2026-05-04 18:42 | 51.90265 | 9.42592 | 24982 ft | 464 kts | 101° |
| 2026-05-04 18:42 | 51.89799 | 9.47873 | 24982 ft | 481 kts | 101° |
| 2026-05-04 18:42 | 51.89330 | 9.53232 | 24977 ft | 481 kts | 101° |
| 2026-05-04 18:42 | 51.88863 | 9.58575 | 24978 ft | 478 kts | 101° |
| 2026-05-04 18:43 | 51.88387 | 9.63907 | 24977 ft | 477 kts | 101° |
| 2026-05-04 18:43 | 51.87927 | 9.69004 | 24976 ft | 478 kts | 101° |
| 2026-05-04 18:43 | 51.87448 | 9.74333 | 24977 ft | 478 kts | 101° |
| 2026-05-04 18:43 | 51.86970 | 9.79653 | 24965 ft | 479 kts | 101° |
| 2026-05-04 18:44 | 51.86334 | 9.84870 | 24967 ft | 478 kts | 105° |
| 2026-05-04 18:44 | 51.85835 | 9.88428 | 24968 ft | 478 kts | 105° |
| 2026-05-04 18:44 | 51.84916 | 9.95104 | 24554 ft | 410 kts | 105° |
| 2026-05-04 18:44 | 51.84364 | 9.99247 | 24073 ft | 385 kts | 105° |
| 2026-05-04 18:45 | 51.83785 | 10.03395 | 23598 ft | 366 kts | 106° |
| 2026-05-04 18:45 | 51.83212 | 10.07458 | 23061 ft | 369 kts | 105° |
| 2026-05-04 18:45 | 51.82633 | 10.11608 | 22544 ft | 383 kts | 105° |
| 2026-05-04 18:45 | 51.82086 | 10.15628 | 21998 ft | 345 kts | 105° |
| 2026-05-04 18:46 | 51.81549 | 10.19488 | 21470 ft | 354 kts | 105° |
| 2026-05-04 18:46 | 51.81001 | 10.23354 | 20960 ft | 352 kts | 105° |
| 2026-05-04 18:46 | 51.80460 | 10.27209 | 20450 ft | 351 kts | 105° |
| 2026-05-04 18:46 | 51.79923 | 10.31049 | 19957 ft | 350 kts | 105° |
| 2026-05-04 18:47 | 51.79386 | 10.34875 | 19468 ft | 348 kts | 105° |
| 2026-05-04 18:47 | 51.78850 | 10.38667 | 18992 ft | 344 kts | 105° |
| 2026-05-04 18:47 | 51.78318 | 10.42428 | 18517 ft | 338 kts | 105° |
| 2026-05-04 18:47 | 51.77798 | 10.46096 | 18015 ft | 334 kts | 105° |
| 2026-05-04 18:48 | 51.77282 | 10.49711 | 17489 ft | 339 kts | 105° |
| 2026-05-04 18:48 | 51.76737 | 10.53514 | 17008 ft | 349 kts | 105° |
| 2026-05-04 18:48 | 51.76210 | 10.57235 | 16972 ft | 331 kts | 105° |
| 2026-05-04 18:48 | 51.75699 | 10.60802 | 16955 ft | 320 kts | 107° |
| 2026-05-04 18:49 | 51.74944 | 10.64165 | 16957 ft | 320 kts | 117° |
| 2026-05-04 18:49 | 51.73948 | 10.67424 | 16966 ft | 326 kts | 120° |
| 2026-05-04 18:49 | 51.72919 | 10.70710 | 16972 ft | 329 kts | 118° |
| 2026-05-04 18:49 | 51.72011 | 10.74102 | 16964 ft | 329 kts | 115° |
| 2026-05-04 18:50 | 51.71170 | 10.77477 | 16965 ft | 327 kts | 116° |
| 2026-05-04 18:50 | 51.70277 | 10.80841 | 16963 ft | 326 kts | 117° |
| 2026-05-04 18:50 | 51.69358 | 10.84174 | 16961 ft | 324 kts | 117° |
| 2026-05-04 18:50 | 51.68453 | 10.87501 | 16961 ft | 325 kts | 117° |
| 2026-05-04 18:51 | 51.67524 | 10.90959 | 16490 ft | 349 kts | 116° |
| 2026-05-04 18:51 | 51.66519 | 10.94685 | 15998 ft | 375 kts | 116° |
| 2026-05-04 18:51 | 51.65468 | 10.98579 | 15510 ft | 382 kts | 116° |
| 2026-05-04 18:51 | 51.64410 | 11.02500 | 15024 ft | 379 kts | 116° |
| 2026-05-04 18:52 | 51.63361 | 11.06369 | 14430 ft | 376 kts | 116° |
| 2026-05-04 18:52 | 51.62320 | 11.10190 | 13829 ft | 370 kts | 116° |
| 2026-05-04 18:52 | 51.61294 | 11.13956 | 13173 ft | 365 kts | 116° |
| 2026-05-04 18:52 | 51.60283 | 11.17667 | 12518 ft | 360 kts | 116° |
| 2026-05-04 18:53 | 51.59278 | 11.21348 | 11877 ft | 358 kts | 116° |
| 2026-05-04 18:53 | 51.58278 | 11.24999 | 11252 ft | 357 kts | 116° |
| 2026-05-04 18:53 | 51.57279 | 11.28644 | 10629 ft | 355 kts | 116° |
| 2026-05-04 18:53 | 51.56284 | 11.32268 | 10042 ft | 354 kts | 116° |
| 2026-05-04 18:54 | 51.55290 | 11.35883 | 9964 ft | 361 kts | 116° |
| 2026-05-04 18:54 | 51.54240 | 11.39685 | 9967 ft | 374 kts | 116° |
| 2026-05-04 18:54 | 51.53188 | 11.43508 | 9533 ft | 371 kts | 116° |
| 2026-05-04 18:54 | 51.52203 | 11.47227 | 9001 ft | 352 kts | 112° |
| 2026-05-04 18:55 | 51.51636 | 11.50932 | 8468 ft | 332 kts | 100° |
| 2026-05-04 18:55 | 51.51678 | 11.57889 | 7951 ft | 288 kts | 86° |
| 2026-05-04 18:55 | 51.51834 | 11.61015 | 7946 ft | 278 kts | 87° |
| 2026-05-04 18:56 | 51.51985 | 11.64140 | 7940 ft | 285 kts | 86° |
| 2026-05-04 18:56 | 51.52152 | 11.67352 | 7945 ft | 290 kts | 86° |
| 2026-05-04 18:56 | 51.52320 | 11.70554 | 7954 ft | 292 kts | 86° |
| 2026-05-04 18:56 | 51.52486 | 11.73807 | 7949 ft | 291 kts | 86° |
| 2026-05-04 18:57 | 51.52649 | 11.77037 | 7952 ft | 291 kts | 86° |
| 2026-05-04 18:57 | 51.52812 | 11.80274 | 7958 ft | 290 kts | 86° |
| 2026-05-04 18:57 | 51.52975 | 11.83510 | 7947 ft | 290 kts | 86° |
| 2026-05-04 18:57 | 51.53128 | 11.86568 | 7954 ft | 290 kts | 86° |
| 2026-05-04 18:58 | 51.53290 | 11.89844 | 7944 ft | 290 kts | 87° |
| 2026-05-04 18:58 | 51.53449 | 11.93079 | 7945 ft | 291 kts | 87° |
| 2026-05-04 18:58 | 51.53608 | 11.96316 | 7946 ft | 291 kts | 87° |
| 2026-05-04 18:58 | 51.53766 | 11.99554 | 7945 ft | 291 kts | 87° |
| 2026-05-04 18:59 | 51.53923 | 12.02791 | 7942 ft | 291 kts | 87° |
| 2026-05-04 18:59 | 51.54080 | 12.06035 | 7942 ft | 291 kts | 87° |
| 2026-05-04 18:59 | 51.54236 | 12.09278 | 7944 ft | 291 kts | 87° |
| 2026-05-04 18:59 | 51.54389 | 12.12516 | 7934 ft | 291 kts | 87° |
| 2026-05-04 19:00 | 51.54539 | 12.15722 | 7935 ft | 291 kts | 87° |
| 2026-05-04 19:00 | 51.54692 | 12.18968 | 7931 ft | 292 kts | 87° |
| 2026-05-04 19:00 | 51.54846 | 12.22209 | 7931 ft | 292 kts | 87° |
| 2026-05-04 19:00 | 51.54998 | 12.25464 | 7941 ft | 292 kts | 87° |
| 2026-05-04 19:01 | 51.55148 | 12.28717 | 7935 ft | 292 kts | 87° |
| 2026-05-04 19:01 | 51.55297 | 12.31972 | 7941 ft | 292 kts | 87° |
| 2026-05-04 19:01 | 51.55447 | 12.35227 | 7938 ft | 292 kts | 87° |
| 2026-05-04 19:01 | 51.55594 | 12.38484 | 7935 ft | 292 kts | 87° |
| 2026-05-04 19:02 | 51.55741 | 12.41730 | 7935 ft | 292 kts | 87° |
| 2026-05-04 19:02 | 51.55887 | 12.44986 | 7936 ft | 292 kts | 87° |
| 2026-05-04 19:02 | 51.56031 | 12.48234 | 7936 ft | 292 kts | 87° |
| 2026-05-04 19:02 | 51.56175 | 12.51487 | 7936 ft | 292 kts | 87° |
| 2026-05-04 19:03 | 51.56318 | 12.54730 | 7936 ft | 291 kts | 87° |
| 2026-05-04 19:03 | 51.56461 | 12.58027 | 7491 ft | 302 kts | 87° |
| 2026-05-04 19:03 | 51.56598 | 12.61387 | 6880 ft | 292 kts | 87° |
| 2026-05-04 19:03 | 51.56718 | 12.64463 | 6255 ft | 277 kts | 87° |
| 2026-05-04 19:04 | 51.56835 | 12.67601 | 5628 ft | 284 kts | 87° |
| 2026-05-04 19:04 | 51.56942 | 12.70752 | 5008 ft | 277 kts | 87° |
| 2026-05-04 19:04 | 51.57035 | 12.73823 | 4381 ft | 274 kts | 87° |
| 2026-05-04 19:04 | 51.57118 | 12.76853 | 4017 ft | 267 kts | 88° |
| 2026-05-04 19:05 | 51.57184 | 12.79787 | 4015 ft | 261 kts | 90° |
| 2026-05-04 19:05 | 51.56703 | 12.82568 | 4004 ft | 267 kts | 121° |
| 2026-05-04 19:05 | 51.55356 | 12.84649 | 4007 ft | 269 kts | 152° |
| 2026-05-04 19:05 | 51.53586 | 12.85352 | 4003 ft | 268 kts | 181° |
| 2026-05-04 19:06 | 51.51797 | 12.84513 | 3990 ft | 265 kts | 212° |
| 2026-05-04 19:06 | 51.50472 | 12.82495 | 4010 ft | 263 kts | 231° |
| 2026-05-04 19:06 | 51.49370 | 12.80188 | 4014 ft | 263 kts | 234° |
| 2026-05-04 19:06 | 51.48298 | 12.77824 | 4016 ft | 263 kts | 234° |
| 2026-05-04 19:07 | 51.47226 | 12.75432 | 4014 ft | 264 kts | 234° |
| 2026-05-04 19:07 | 51.46158 | 12.73040 | 4013 ft | 263 kts | 236° |
| 2026-05-04 19:07 | 51.45456 | 12.70347 | 4003 ft | 264 kts | 257° |
| 2026-05-04 19:07 | 51.45238 | 12.67421 | 4005 ft | 265 kts | 266° |
| 2026-05-04 19:08 | 51.45174 | 12.65427 | 4004 ft | 265 kts | 267° |
| 2026-05-04 19:08 | 51.45057 | 12.62512 | 4004 ft | 265 kts | 265° |
| 2026-05-04 19:08 | 51.44900 | 12.59560 | 4004 ft | 265 kts | 265° |
| 2026-05-04 19:08 | 51.44772 | 12.56623 | 3988 ft | 265 kts | 266° |
| 2026-05-04 19:09 | 51.44629 | 12.53643 | 3705 ft | 270 kts | 265° |
| 2026-05-04 19:09 | 51.44484 | 12.50659 | 3353 ft | 267 kts | 266° |
| 2026-05-04 19:09 | 51.44358 | 12.47724 | 3005 ft | 260 kts | 266° |
| 2026-05-04 19:09 | 51.44212 | 12.44890 | 2664 ft | 251 kts | 266° |
| 2026-05-04 19:10 | 51.44096 | 12.42171 | 2328 ft | 222 kts | 266° |
| 2026-05-04 19:10 | 51.44018 | 12.40643 | 2137 ft | 200 kts | 266° |
| 2026-05-04 19:10 | 51.43898 | 12.38010 | 1847 ft | 166 kts | 267° |
| 2026-05-04 19:10 | 51.43797 | 12.36232 | 1651 ft | 157 kts | 265° |
| 2026-05-04 19:11 | 51.43712 | 12.34508 | 1454 ft | 154 kts | 267° |
| 2026-05-04 19:11 | 51.43643 | 12.32798 | 1237 ft | 155 kts | 266° |
| 2026-05-04 19:11 | 51.43555 | 12.31071 | 1028 ft | 152 kts | 266° |
| 2026-05-04 19:11 | 51.43485 | 12.29583 | 849 ft | 124 kts | 266° |
| 2026-05-04 19:12 | 51.43424 | 12.28254 | 637 ft | 116 kts | 266° |
| 2026-05-04 19:12 | 51.43319 | 12.25730 | 447 ft | 101 kts | 266° |
| 2026-05-04 19:12 | 51.43277 | 12.24842 | 448 ft | 68 kts | 266° |
| 2026-05-04 19:13 | 51.43242 | 12.24032 | 440 ft | 73 kts | 265° |
| 2026-05-04 19:13 | 51.43207 | 12.23306 | 443 ft | 62 kts | 265° |
| 2026-05-04 19:13 | 51.43170 | 12.22546 | 428 ft | 74 kts | 265° |
| 2026-05-04 19:13 | 51.43142 | 12.21943 | 430 ft | 40 kts | 265° |
| 2026-05-04 19:14 | 51.43103 | 12.21631 | 431 ft | 27 kts | 231° |
| 2026-05-04 19:14 | 51.42994 | 12.21451 | 428 ft | 15 kts | 225° |
| 2026-05-04 19:14 | 51.42899 | 12.21301 | 426 ft | 22 kts | 217° |
| 2026-05-04 19:14 | 51.42745 | 12.21227 | 428 ft | 25 kts | 194° |
| 2026-05-04 19:15 | 51.42577 | 12.21155 | 436 ft | 25 kts | 196° |
| 2026-05-04 19:15 | 51.42421 | 12.21085 | 437 ft | 10 kts | 196° |
| 2026-05-04 19:15 | 51.42326 | 12.21042 | 432 ft | 18 kts | 194° |
| 2026-05-04 19:15 | 51.42192 | 12.20988 | 426 ft | 14 kts | 182° |
| 2026-05-04 19:16 | 51.42134 | 12.21137 | 421 ft | 19 kts | 105° |
| 2026-05-04 19:16 | 51.42110 | 12.21316 | 416 ft | 16 kts | 105° |
| 2026-05-04 19:16 | 51.42086 | 12.21458 | 426 ft | 11 kts | 105° |
| 2026-05-04 19:16 | 51.42044 | 12.21500 | 427 ft | 9 kts | 195° |
| 2026-05-04 19:17 | 51.42023 | 12.21491 | 426 ft | 0 kts | 195° |
| 2026-05-04 19:17 | 51.42022 | 12.21490 | 425 ft | 0 kts | 195° |